Time;durP1;ratioP1;P1;durP2;ratioP2;P2;SDS_P1;SDS_P2;PMS_P1;PMS_P2;Temp;Humidity;BMP_temperature;BMP_pressure;BME280_temperature;BME280_humidity;BME280_pressure;Samples;Min_cycle;Max_cycle;Signal;HPM_P1;HPM_P2
2023/02/18 00:00:58;;;;;;;0.50;0.50;;;;;;;10.67;100.00;101264.41;4995544;28;20026;-75
2023/02/18 00:03:26;;;;;;;0.68;0.68;;;;;;;10.59;100.00;101256.31;4979836;28;20044;-76
2023/02/18 00:05:51;;;;;;;0.52;0.52;;;;;;;10.65;100.00;101272.63;4995557;28;20042;-75
2023/02/18 00:08:17;;;;;;;0.40;0.40;;;;;;;10.66;100.00;101266.22;4982992;28;20030;-76
2023/02/18 00:10:43;;;;;;;0.63;0.63;;;;;;;10.62;100.00;101261.38;4999059;28;20041;-76
2023/02/18 00:13:09;;;;;;;0.60;0.60;;;;;;;10.64;100.00;101265.56;4999570;28;20132;-76
2023/02/18 00:15:35;;;;;;;0.47;0.47;;;;;;;10.65;100.00;101261.88;4998735;28;20036;-76
2023/02/18 00:18:01;;;;;;;0.50;0.50;;;;;;;10.61;100.00;101265.03;4998778;28;20100;-75
2023/02/18 00:20:27;;;;;;;0.50;0.50;;;;;;;10.66;100.00;101262.72;4983140;28;20049;-76
2023/02/18 00:22:52;;;;;;;0.50;0.50;;;;;;;10.60;100.00;101258.81;4999367;28;20030;-76
2023/02/18 00:25:18;;;;;;;0.40;0.40;;;;;;;10.61;100.00;101262.34;4982641;28;20062;-76
2023/02/18 00:27:45;;;;;;;0.52;0.50;;;;;;;10.67;100.00;101272.47;4982861;28;20038;-76
2023/02/18 00:30:11;;;;;;;0.50;0.50;;;;;;;10.65;100.00;101269.09;4998834;28;20036;-76
2023/02/18 00:32:36;;;;;;;0.70;0.50;;;;;;;10.67;100.00;101294.84;5015311;28;20081;-76
2023/02/18 00:35:03;;;;;;;0.60;0.60;;;;;;;10.67;100.00;101286.75;4999054;28;20034;-76
2023/02/18 00:37:29;;;;;;;0.40;0.40;;;;;;;10.67;100.00;101272.47;5015033;28;20049;-76
2023/02/18 00:39:54;;;;;;;0.60;0.60;;;;;;;10.62;100.00;101267.59;4999013;28;20426;-78
2023/02/18 00:42:20;;;;;;;0.40;0.40;;;;;;;10.65;100.00;101282.56;4998675;28;20057;-75
2023/02/18 00:44:46;;;;;;;0.52;0.52;;;;;;;10.65;100.00;101275.31;4982786;28;20038;-76
2023/02/18 00:47:12;;;;;;;0.50;0.50;;;;;;;10.65;100.00;101271.78;4982609;28;20084;-76
2023/02/18 00:49:37;;;;;;;0.40;0.40;;;;;;;10.65;100.00;101277.16;4998007;28;20492;-75
2023/02/18 00:52:04;;;;;;;1.85;0.50;;;;;;;10.64;100.00;101272.78;4998643;28;20077;-76
2023/02/18 00:54:30;;;;;;;0.63;0.63;;;;;;;10.62;100.00;101266.75;4998675;28;20040;-75
2023/02/18 00:56:55;;;;;;;0.40;0.40;;;;;;;10.63;100.00;101271.94;5014949;28;20030;-76
2023/02/18 00:59:21;;;;;;;0.47;0.47;;;;;;;10.68;100.00;101284.91;4982245;28;20088;-75
2023/02/18 01:01:47;;;;;;;0.40;0.40;;;;;;;10.68;100.00;101292.97;4998794;28;20471;-76
2023/02/18 01:04:12;;;;;;;0.50;0.50;;;;;;;10.66;100.00;101289.59;4998465;28;20349;-76
2023/02/18 01:06:38;;;;;;;0.40;0.40;;;;;;;10.67;100.00;101286.75;4982381;28;20034;-76
2023/02/18 01:09:04;;;;;;;0.50;0.50;;;;;;;10.69;100.00;101290.13;4981784;28;20510;-75
2023/02/18 01:11:30;;;;;;;0.70;0.68;;;;;;;10.70;100.00;101286.44;4982272;28;20435;-76
2023/02/18 01:13:55;;;;;;;0.40;0.40;;;;;;;10.74;100.00;101305.75;4998512;28;20041;-76
2023/02/18 01:16:21;;;;;;;0.88;0.70;;;;;;;10.63;100.00;101276.50;4997945;28;20030;-76
2023/02/18 01:18:47;;;;;;;1.55;0.77;;;;;;;10.76;100.00;101293.00;4997433;28;20034;-75
2023/02/18 01:21:13;;;;;;;0.63;0.63;;;;;;;10.70;100.00;101299.03;4998155;28;20053;-76
2023/02/18 01:23:42;;;;;;;0.50;0.50;;;;;;;10.73;100.00;101291.47;5014183;28;20026;-76
2023/02/18 01:26:09;;;;;;;0.50;0.50;;;;;;;10.70;100.00;101291.81;4998086;28;20044;-75
2023/02/18 01:28:35;;;;;;;0.70;0.70;;;;;;;10.75;100.00;101304.78;5013678;28;20443;-75
2023/02/18 01:31:09;;;;;;;0.52;0.52;;;;;;;10.73;100.00;101298.72;4981787;28;20120;-76
2023/02/18 01:33:36;;;;;;;0.52;0.52;;;;;;;10.75;100.00;101319.06;5013616;28;20034;-77
2023/02/18 01:36:03;;;;;;;0.43;0.43;;;;;;;10.72;100.00;101308.63;5013620;28;20175;-76
2023/02/18 01:38:30;;;;;;;0.43;0.43;;;;;;;10.71;100.00;101306.94;4997209;28;20044;-76
2023/02/18 01:40:56;;;;;;;0.47;0.47;;;;;;;10.66;100.00;101308.44;4997411;28;20072;-75
2023/02/18 01:43:22;;;;;;;0.40;0.40;;;;;;;10.70;100.00;101324.09;4980980;28;20129;-78
2023/02/18 01:46:12;;;;;;;0.40;0.40;;;;;;;10.72;100.00;101332.84;4996986;28;20038;-77
2023/02/18 01:48:43;;;;;;;1.48;0.60;;;;;;;10.68;100.00;101322.56;4991997;28;20115;-77
2023/02/18 01:51:13;;;;;;;0.50;0.50;;;;;;;10.68;100.00;101341.38;5013805;28;20041;-77
2023/02/18 01:53:43;;;;;;;14.13;1.40;;;;;;;10.68;100.00;101341.38;5029892;28;20384;-75
2023/02/18 01:56:30;;;;;;;0.40;0.40;;;;;;;10.68;100.00;101341.38;5013739;28;20033;-77
2023/02/18 01:59:06;;;;;;;2.28;0.60;;;;;;;10.68;100.00;101336.00;4983601;28;20038;-77
2023/02/18 02:01:38;;;;;;;0.40;0.40;;;;;;;10.55;100.00;101310.41;5012646;28;20037;-77
2023/02/18 02:04:09;;;;;;;0.50;0.50;;;;;;;10.67;100.00;101334.34;4981204;28;20133;-77
2023/02/18 02:06:39;;;;;;;0.40;0.40;;;;;;;10.51;100.00;101306.38;5012998;28;20034;-77
2023/02/18 02:09:14;;;;;;;0.40;0.40;;;;;;;10.64;100.00;101334.63;4981100;28;20048;-78
2023/02/18 02:12:20;;;;;;;0.40;0.40;;;;;;;10.63;100.00;101330.28;5013887;28;20034;-78
2023/02/18 02:15:26;;;;;;;0.50;0.50;;;;;;;10.60;100.00;101344.03;5012994;28;20084;-78
2023/02/18 02:18:15;;;;;;;0.40;0.40;;;;;;;10.57;100.00;101337.16;4981240;28;20036;-77
2023/02/18 02:21:18;;;;;;;0.50;0.50;;;;;;;10.45;100.00;101320.47;4996532;28;20061;-77
2023/02/18 02:24:01;;;;;;;0.43;0.43;;;;;;;10.47;100.00;101337.25;5013459;28;20033;-77
2023/02/18 02:26:54;;;;;;;0.55;0.55;;;;;;;10.49;100.00;101354.06;5012765;28;20037;-77
2023/02/18 02:29:41;;;;;;;0.40;0.40;;;;;;;10.47;100.00;101350.69;5012751;28;20033;-77
2023/02/18 02:32:32;;;;;;;0.50;0.50;;;;;;;10.43;100.00;101365.47;5013121;28;20041;-77
2023/02/18 02:35:04;;;;;;;0.50;0.50;;;;;;;10.20;100.00;101338.28;5012633;28;20037;-79
2023/02/18 02:37:40;;;;;;;0.40;0.40;;;;;;;10.27;100.00;101360.00;5013196;28;20026;-77
2023/02/18 02:40:12;;;;;;;2.40;0.68;;;;;;;10.36;100.00;101366.28;4996945;28;20373;-76
2023/02/18 02:42:46;;;;;;;0.47;0.47;;;;;;;10.29;100.00;101358.00;5012896;28;20045;-76
2023/02/18 02:45:32;;;;;;;0.60;0.60;;;;;;;10.30;100.00;101351.63;5013070;28;20041;-76
2023/02/18 02:48:37;;;;;;;0.45;0.45;;;;;;;10.42;100.00;101358.41;5012808;28;20030;-76
2023/02/18 02:51:17;;;;;;;3.22;0.63;;;;;;;10.42;100.00;101366.47;4980243;28;20034;-76
2023/02/18 02:53:43;;;;;;;1.25;0.75;;;;;;;10.49;100.00;101374.75;4996459;28;20415;-76
2023/02/18 02:56:23;;;;;;;0.40;0.40;;;;;;;10.44;100.00;101360.94;4980286;28;20088;-76
2023/02/18 02:58:58;;;;;;;0.98;0.60;;;;;;;10.48;100.00;101360.47;4993183;28;20484;-76
2023/02/18 03:01:49;;;;;;;2.47;1.25;;;;;;;10.47;100.00;101352.56;4979937;28;20038;-76
2023/02/18 03:04:30;;;;;;;0.68;0.68;;;;;;;10.43;100.00;101356.59;5028237;28;20045;-76
2023/02/18 03:07:17;;;;;;;2.83;0.82;;;;;;;10.37;100.00;101339.22;4996626;28;20038;-76
2023/02/18 03:10:09;;;;;;;0.50;0.50;;;;;;;10.39;100.00;101349.81;5012529;28;20041;-76
2023/02/18 03:13:01;;;;;;;0.50;0.50;;;;;;;10.38;100.00;101349.00;5012814;28;20084;-76
2023/02/18 03:15:30;;;;;;;0.50;0.50;;;;;;;10.41;100.00;101345.13;4990438;28;20092;-76
2023/02/18 03:18:07;;;;;;;1.15;0.77;;;;;;;10.44;100.00;101345.66;5012565;28;20404;-76
2023/02/18 03:20:41;;;;;;;0.40;0.40;;;;;;;10.48;100.00;101341.66;5012481;28;20033;-76
2023/02/18 03:23:12;;;;;;;0.88;0.88;;;;;;;10.41;100.00;101320.94;4981406;28;20041;-75
2023/02/18 03:25:39;;;;;;;1.45;1.30;;;;;;;10.29;100.00;101320.38;5012230;28;20037;-77
2023/02/18 03:28:09;;;;;;;0.40;0.40;;;;;;;10.31;100.00;101329.94;5012032;28;20037;-77
2023/02/18 03:31:09;;;;;;;1.17;0.50;;;;;;;10.27;100.00;101323.22;5012187;28;20423;-75
2023/02/18 03:33:39;;;;;;;0.40;0.40;;;;;;;10.23;100.00;101316.44;4974389;28;20153;-76
2023/02/18 03:36:05;;;;;;;0.45;0.45;;;;;;;10.24;100.00;101306.53;4996106;28;20037;-77
2023/02/18 03:38:45;;;;;;;1.10;0.50;;;;;;;10.25;100.00;101314.44;4995636;28;20048;-75
2023/02/18 03:41:11;;;;;;;3.00;0.40;;;;;;;10.28;100.00;101295.34;4996817;28;20476;-76
2023/02/18 03:43:39;;;;;;;1.80;0.60;;;;;;;10.24;100.00;101293.97;4983710;28;20099;-77
2023/02/18 03:46:07;;;;;;;0.52;0.52;;;;;;;10.17;100.00;101284.84;4999689;28;20041;-77
2023/02/18 03:48:33;;;;;;;0.50;0.50;;;;;;;9.98;100.00;101259.06;4999769;28;20038;-77
2023/02/18 03:51:01;;;;;;;0.40;0.40;;;;;;;10.09;100.00;101277.59;5000247;28;20066;-77
2023/02/18 03:53:31;;;;;;;0.50;0.50;;;;;;;10.16;100.00;101268.88;4999698;28;20084;-76
2023/02/18 03:56:00;;;;;;;0.63;0.55;;;;;;;10.18;100.00;101259.66;4983625;28;20139;-76
2023/02/18 03:58:26;;;;;;;0.50;0.50;;;;;;;10.13;100.00;101278.97;4999305;28;20026;-77
2023/02/18 04:00:54;;;;;;;0.40;0.40;;;;;;;10.05;100.00;101270.00;4999842;28;20033;-76
2023/02/18 04:03:19;;;;;;;0.50;0.50;;;;;;;10.02;100.00;101267.63;5015561;28;20065;-77
2023/02/18 04:05:50;;;;;;;0.50;0.50;;;;;;;10.06;100.00;101260.94;4999700;28;20042;-77
2023/02/18 04:08:16;;;;;;;0.50;0.50;;;;;;;10.16;100.00;101271.56;5000195;28;20464;-76
2023/02/18 04:10:44;;;;;;;1.35;0.50;;;;;;;10.18;100.00;101274.94;4999337;28;20041;-76
2023/02/18 04:13:09;;;;;;;0.68;0.68;;;;;;;10.21;100.00;101277.28;4999416;28;20472;-76
2023/02/18 04:15:35;;;;;;;0.30;0.30;;;;;;;10.21;100.00;101269.22;4999528;28;20077;-77
2023/02/18 04:18:05;;;;;;;0.40;0.40;;;;;;;10.13;100.00;101270.91;5015435;28;20022;-76
2023/02/18 04:20:30;;;;;;;4.18;0.73;;;;;;;10.16;100.00;101263.50;4983059;28;20076;-77
2023/02/18 04:22:56;;;;;;;1.15;1.05;;;;;;;10.07;100.00;101254.56;4982537;28;20125;-77
2023/02/18 04:25:22;;;;;;;4.13;1.83;;;;;;;10.04;100.00;101263.78;4998982;28;20036;-77
2023/02/18 04:27:47;;;;;;;0.40;0.40;;;;;;;10.02;100.00;101259.56;4982707;28;20032;-77
2023/02/18 04:30:13;;;;;;;1.95;0.50;;;;;;;9.96;100.00;101244.94;4982606;28;20034;-77
2023/02/18 04:32:39;;;;;;;0.50;0.50;;;;;;;10.04;100.00;101271.00;4983137;28;20040;-76
2023/02/18 04:35:05;;;;;;;4.38;0.80;;;;;;;9.97;100.00;101251.97;4982749;28;20494;-76
2023/02/18 04:37:33;;;;;;;14.82;1.65;;;;;;;10.01;100.00;101258.72;4982311;28;20499;-76
2023/02/18 04:39:59;;;;;;;7.78;1.23;;;;;;;10.04;100.00;101266.47;4998644;28;20476;-76
2023/02/18 04:42:25;;;;;;;2.28;0.70;;;;;;;9.98;100.00;101253.69;4982692;28;20052;-76
2023/02/18 04:44:58;;;;;;;10.63;2.25;;;;;;;9.99;100.00;101255.34;4982792;28;20468;-77
2023/02/18 04:47:30;;;;;;;0.40;0.40;;;;;;;10.01;100.00;101258.72;5015583;28;20133;-77
2023/02/18 04:49:55;;;;;;;0.50;0.50;;;;;;;9.98;100.00;101256.38;4982415;28;20037;-77
2023/02/18 04:52:28;;;;;;;2.17;0.70;;;;;;;9.92;100.00;101248.94;4982043;28;20480;-76
2023/02/18 04:54:54;;;;;;;0.75;0.60;;;;;;;9.94;100.00;101256.84;4998336;28;20034;-76
2023/02/18 04:57:20;;;;;;;1.10;0.70;;;;;;;9.86;100.00;101254.94;4998626;28;20041;-76
2023/02/18 05:00:10;;;;;;;0.40;0.40;;;;;;;9.71;100.00;101261.91;4982398;28;20061;-77
2023/02/18 05:02:38;;;;;;;0.50;0.50;;;;;;;9.60;100.00;101263.84;4998281;28;20029;-77
2023/02/18 05:05:04;;;;;;;0.95;0.70;;;;;;;9.62;100.00;101255.63;5014952;28;20029;-77
2023/02/18 05:07:32;;;;;;;4.63;1.00;;;;;;;9.79;100.00;101272.69;4998190;28;20388;-76
2023/02/18 05:09:58;;;;;;;4.97;1.05;;;;;;;9.89;100.00;101278.81;4998291;28;20080;-77
2023/02/18 05:12:24;;;;;;;1.20;0.52;;;;;;;9.97;100.00;101262.72;4982340;28;20037;-76
2023/02/18 05:14:50;;;;;;;0.82;0.80;;;;;;;10.00;100.00;101257.06;4998393;28;20115;-77
2023/02/18 05:17:16;;;;;;;5.22;0.80;;;;;;;9.95;100.00;101267.44;5014397;28;20124;-77
2023/02/18 05:19:42;;;;;;;1.50;0.60;;;;;;;9.94;100.00;101259.53;4998040;28;20120;-77
2023/02/18 05:22:07;;;;;;;0.77;0.60;;;;;;;9.97;100.00;101283.38;4981835;28;20038;-77
2023/02/18 05:24:33;;;;;;;0.47;0.47;;;;;;;9.92;100.00;101273.09;4998168;28;20038;-76
2023/02/18 05:26:59;;;;;;;1.63;1.52;;;;;;;9.89;100.00;101286.84;4981967;28;20057;-77
2023/02/18 05:29:27;;;;;;;3.60;0.70;;;;;;;9.73;100.00;101276.00;4997524;28;20040;-76
2023/02/18 05:31:53;;;;;;;3.30;0.68;;;;;;;9.55;100.00;101276.03;4981894;28;20373;-76
2023/02/18 05:34:24;;;;;;;13.80;1.75;;;;;;;9.45;100.00;101281.53;4981865;28;20040;-77
2023/02/18 05:36:50;;;;;;;2.95;0.60;;;;;;;9.36;100.00;101275.22;4981604;28;20427;-77
2023/02/18 05:39:16;;;;;;;1.05;0.60;;;;;;;9.39;100.00;101276.75;4997978;28;20042;-76
2023/02/18 05:41:44;;;;;;;4.50;1.10;;;;;;;9.33;100.00;101282.75;4997845;28;20030;-77
2023/02/18 05:44:32;;;;;;;1.73;0.85;;;;;;;9.05;100.00;101252.50;4998583;28;20049;-77
2023/02/18 05:47:07;;;;;;;5.18;1.33;;;;;;;9.16;100.00;101289.84;5000305;28;20380;-77
2023/02/18 05:49:34;;;;;;;6.90;1.90;;;;;;;9.18;100.00;101285.13;4982621;28;20033;-77
2023/02/18 05:52:01;;;;;;;1.23;1.00;;;;;;;9.03;100.00;101279.47;4997622;28;20444;-76
2023/02/18 05:54:27;;;;;;;16.98;1.55;;;;;;;8.93;100.00;101287.59;4997409;28;20033;-77
2023/02/18 05:56:54;;;;;;;0.80;0.70;;;;;;;8.93;100.00;101294.78;5013380;28;20030;-77
2023/02/18 05:59:27;;;;;;;3.70;0.75;;;;;;;8.96;100.00;101287.28;5013252;28;20030;-78
2023/02/18 06:01:55;;;;;;;7.78;1.75;;;;;;;9.04;100.00;101283.84;4966726;28;20030;-77
2023/02/18 06:04:27;;;;;;;8.57;1.25;;;;;;;9.10;100.00;101285.91;4996852;28;20033;-77
2023/02/18 06:06:53;;;;;;;12.40;3.40;;;;;;;9.13;100.00;101293.66;4996444;28;20112;-75
2023/02/18 06:09:28;;;;;;;25.13;3.58;;;;;;;9.23;100.00;101294.44;4996772;28;20037;-75
2023/02/18 06:12:00;;;;;;;13.35;1.77;;;;;;;9.31;100.00;101287.44;4997635;28;20034;-75
2023/02/18 06:14:28;;;;;;;23.35;2.88;;;;;;;9.44;100.00;101282.50;4980580;28;20033;-75
2023/02/18 06:16:54;;;;;;;17.65;2.67;;;;;;;9.53;100.00;101303.06;5013207;28;20442;-76
2023/02/18 06:19:19;;;;;;;9.85;1.63;;;;;;;9.54;100.00;101302.06;5013244;28;20034;-75
2023/02/18 06:21:45;;;;;;;11.40;2.05;;;;;;;9.60;100.00;101298.75;4980970;28;20490;-76
2023/02/18 06:24:11;;;;;;;10.02;2.30;;;;;;;9.57;100.00;101282.94;4997074;28;20030;-76
2023/02/18 06:26:36;;;;;;;14.25;2.22;;;;;;;9.71;100.00;101294.97;4997153;28;20084;-75
2023/02/18 06:29:06;;;;;;;19.20;2.97;;;;;;;9.70;100.00;101282.53;4996825;28;20476;-75
2023/02/18 06:31:31;;;;;;;16.15;1.90;;;;;;;9.75;100.00;101304.41;4996427;28;20080;-77
2023/02/18 06:33:57;;;;;;;36.03;3.28;;;;;;;9.69;100.00;101292.44;4996952;28;20444;-76
2023/02/18 06:36:25;;;;;;;13.45;2.95;;;;;;;9.62;100.00;101291.38;4996582;28;20112;-75
2023/02/18 06:38:53;;;;;;;15.30;2.05;;;;;;;9.50;100.00;101287.28;4996737;28;20088;-75
2023/02/18 06:41:22;;;;;;;18.48;2.75;;;;;;;9.41;100.00;101285.50;4996671;28;20046;-76
2023/02/18 06:43:48;;;;;;;23.00;3.22;;;;;;;9.39;100.00;101291.06;4995986;28;20120;-77
2023/02/18 06:46:15;;;;;;;16.27;2.95;;;;;;;9.34;100.00;101284.44;5012510;28;20052;-75
2023/02/18 06:48:41;;;;;;;20.08;2.65;;;;;;;9.34;100.00;101282.63;5012793;28;20025;-76
2023/02/18 06:51:07;;;;;;;17.83;3.95;;;;;;;9.33;100.00;101286.28;4996418;28;20081;-75
2023/02/18 06:53:33;;;;;;;20.25;2.92;;;;;;;9.40;100.00;101311.50;4996127;28;20072;-75
2023/02/18 06:55:58;;;;;;;9.27;2.47;;;;;;;9.37;100.00;101314.50;4996679;28;20046;-76
2023/02/18 06:58:24;;;;;;;19.48;2.53;;;;;;;9.34;100.00;101319.31;4980172;28;20369;-75
2023/02/18 07:00:50;;;;;;;6.13;2.33;;;;;;;9.29;100.00;101327.00;4996294;28;20369;-76
2023/02/18 07:03:16;;;;;;;26.25;4.70;;;;;;;9.20;100.00;101331.44;5012645;28;20488;-75
2023/02/18 07:05:41;;;;;;;6.72;1.65;;;;;;;9.13;100.00;101320.50;4980072;28;20029;-76
2023/02/18 07:08:07;;;;;;;4.15;0.93;;;;;;;9.12;100.00;101326.84;4996529;28;20540;-75
2023/02/18 07:10:33;;;;;;;0.55;0.55;;;;;;;8.96;100.00;101289.97;4980315;28;20033;-75
2023/02/18 07:12:58;;;;;;;1.85;0.70;;;;;;;9.08;100.00;101314.75;5012382;28;20470;-76
2023/02/18 07:15:29;;;;;;;0.50;0.50;;;;;;;8.97;100.00;101306.91;4996266;28;20481;-75
2023/02/18 07:18:04;;;;;;;0.80;0.73;;;;;;;8.99;100.00;101321.00;5002430;28;20076;-75
2023/02/18 07:20:32;;;;;;;0.50;0.50;;;;;;;8.89;100.00;101321.09;5002995;28;20058;-75
2023/02/18 07:23:00;;;;;;;1.00;0.65;;;;;;;8.74;100.00;101301.97;5002613;28;20042;-75
2023/02/18 07:25:26;;;;;;;0.40;0.40;;;;;;;8.82;100.00;101314.63;5002353;28;20053;-75
2023/02/18 07:27:52;;;;;;;0.40;0.40;;;;;;;8.82;100.00;101303.06;5002999;28;20119;-76
2023/02/18 07:30:24;;;;;;;0.50;0.50;;;;;;;8.91;100.00;101316.38;5002603;28;20034;-75
2023/02/18 07:32:57;;;;;;;0.40;0.40;;;;;;;8.91;100.00;101308.34;5002790;28;20476;-77
2023/02/18 07:35:22;;;;;;;0.50;0.50;;;;;;;8.99;100.00;101318.31;4986981;28;20041;-76
2023/02/18 07:37:49;;;;;;;0.40;0.40;;;;;;;9.05;100.00;101328.47;5002315;28;20034;-75
2023/02/18 07:40:18;;;;;;;0.40;0.40;;;;;;;9.05;100.00;101308.81;5018897;28;20034;-75
2023/02/18 07:42:44;;;;;;;0.40;0.40;;;;;;;9.15;100.00;101325.69;5002306;28;20456;-75
2023/02/18 07:45:12;;;;;;;0.40;0.40;;;;;;;9.21;100.00;101334.00;4986329;28;20033;-75
2023/02/18 07:47:41;;;;;;;0.40;0.40;;;;;;;9.24;100.00;101336.38;5017785;28;20507;-76
2023/02/18 07:50:08;;;;;;;0.40;0.40;;;;;;;9.27;100.00;101332.53;5002485;28;20072;-76
2023/02/18 07:52:34;;;;;;;0.40;0.40;;;;;;;9.29;100.00;101338.59;5018454;28;20026;-76
2023/02/18 07:54:59;;;;;;;0.40;0.40;;;;;;;9.34;100.00;101335.44;5018743;28;20469;-76
2023/02/18 07:57:25;;;;;;;0.40;0.40;;;;;;;9.35;100.00;101337.13;5002592;28;20045;-76
2023/02/18 07:59:51;;;;;;;0.45;0.45;;;;;;;9.38;100.00;101345.72;4986060;28;20037;-75
2023/02/18 08:02:19;;;;;;;0.40;0.40;;;;;;;9.39;100.00;101346.53;4986338;28;20124;-76
2023/02/18 08:04:46;;;;;;;0.40;0.40;;;;;;;9.36;100.00;101333.44;4970104;28;20453;-76
2023/02/18 08:07:16;;;;;;;0.50;0.50;;;;;;;9.27;100.00;101332.53;4985764;28;20037;-75
2023/02/18 08:09:42;;;;;;;0.60;0.60;;;;;;;9.33;100.00;101352.53;5001991;28;20034;-77
2023/02/18 08:12:08;;;;;;;0.40;0.40;;;;;;;9.29;100.00;101354.69;5001855;28;20529;-78
2023/02/18 08:14:34;;;;;;;0.40;0.40;;;;;;;9.28;100.00;101355.66;5002126;28;20032;-77
2023/02/18 08:16:59;;;;;;;0.40;0.40;;;;;;;9.24;100.00;101343.56;5001741;28;20026;-76
2023/02/18 08:19:25;;;;;;;0.40;0.40;;;;;;;9.19;100.00;101349.38;5001620;28;20044;-76
2023/02/18 08:21:54;;;;;;;0.40;0.40;;;;;;;9.24;100.00;101362.34;5001961;28;20044;-77
2023/02/18 08:24:20;;;;;;;0.40;0.40;;;;;;;9.26;100.00;101368.38;5002012;28;20038;-77
2023/02/18 08:26:46;;;;;;;0.40;0.40;;;;;;;9.14;100.00;101351.69;5001644;28;20044;-76
2023/02/18 08:29:12;;;;;;;0.50;0.50;;;;;;;9.21;100.00;101359.97;4982676;28;20037;-75
2023/02/18 08:31:38;;;;;;;0.40;0.40;;;;;;;9.24;100.00;101373.09;4999171;28;20034;-76
2023/02/18 08:34:04;;;;;;;1.95;0.60;;;;;;;9.21;100.00;101368.88;4998938;28;20388;-75
2023/02/18 08:36:30;;;;;;;0.98;0.40;;;;;;;9.25;100.00;101374.78;4998936;28;20124;-75
2023/02/18 08:38:56;;;;;;;0.73;0.60;;;;;;;9.25;100.00;101382.81;4998854;28;20030;-75
2023/02/18 08:41:22;;;;;;;1.10;0.85;;;;;;;9.28;100.00;101379.00;4998505;28;20033;-75
2023/02/18 08:43:48;;;;;;;0.40;0.40;;;;;;;9.09;100.00;101340.56;4982642;28;20064;-75
2023/02/18 08:46:15;;;;;;;0.40;0.40;;;;;;;9.30;100.00;101388.56;4982296;28;20041;-76
2023/02/18 08:48:41;;;;;;;0.45;0.45;;;;;;;9.33;100.00;101382.91;4998544;28;20041;-76
2023/02/18 08:51:15;;;;;;;0.50;0.50;;;;;;;9.36;100.00;101381.75;4998324;28;20365;-76
2023/02/18 08:53:41;;;;;;;0.50;0.50;;;;;;;9.40;100.00;101389.34;4982101;28;20025;-75
2023/02/18 08:56:08;;;;;;;0.40;0.40;;;;;;;9.45;100.00;101381.69;4997884;28;20117;-75
2023/02/18 08:58:36;;;;;;;0.40;0.40;;;;;;;9.52;100.00;101392.63;5014198;28;20033;-78
2023/02/18 09:01:04;;;;;;;0.45;0.45;;;;;;;9.54;100.00;101385.28;4998583;28;20116;-75
2023/02/18 09:03:29;;;;;;;0.50;0.50;;;;;;;9.58;100.00;101389.38;4982507;28;20030;-75
2023/02/18 09:05:56;;;;;;;0.40;0.40;;;;;;;9.61;100.00;101388.22;4997919;28;20539;-75
2023/02/18 09:08:21;;;;;;;0.40;0.40;;;;;;;9.74;100.00;101406.59;4982105;28;20038;-75
2023/02/18 09:10:47;;;;;;;0.40;0.40;;;;;;;9.82;100.00;101390.56;4998565;28;20464;-75
2023/02/18 09:13:13;;;;;;;0.40;0.40;;;;;;;9.94;100.00;101386.63;4998054;28;20050;-75
2023/02/18 09:15:39;;;;;;;0.40;0.40;;;;;;;10.17;100.00;101388.81;4982021;28;20033;-76
2023/02/18 09:18:05;;;;;;;0.50;0.50;;;;;;;10.26;100.00;101385.16;4998203;28;20034;-76
2023/02/18 09:20:40;;;;;;;0.63;0.47;;;;;;;10.36;100.00;101387.78;4998415;28;20041;-78
2023/02/18 09:23:09;;;;;;;0.40;0.40;;;;;;;10.39;100.00;101401.75;5014182;28;20028;-76
2023/02/18 09:25:38;;;;;;;0.50;0.50;;;;;;;10.39;100.00;101400.91;4998115;28;20038;-76
2023/02/18 09:28:04;;;;;;;0.50;0.50;;;;;;;10.44;100.00;101407.50;4981526;28;20038;-76
2023/02/18 09:30:30;;;;;;;2.42;0.40;;;;;;;10.45;100.00;101406.50;4998069;28;20117;-75
2023/02/18 09:32:55;;;;;;;0.40;0.40;;;;;;;10.46;100.00;101404.66;4998004;28;20037;-75
2023/02/18 09:35:23;;;;;;;0.40;0.40;;;;;;;10.36;100.00;101385.94;4997888;28;20029;-76
2023/02/18 09:37:49;;;;;;;0.40;0.40;;;;;;;10.49;100.00;101396.25;4997830;28;20034;-76
2023/02/18 09:40:25;;;;;;;0.40;0.40;;;;;;;10.54;100.00;101405.53;4997463;28;20037;-75
2023/02/18 09:42:57;;;;;;;0.40;0.40;;;;;;;10.72;100.00;101393.88;4997628;28;20041;-76
2023/02/18 09:45:27;;;;;;;0.40;0.40;;;;;;;10.89;100.00;101392.06;4981746;28;20065;-76
2023/02/18 09:47:55;;;;;;;0.40;0.40;;;;;;;10.86;100.00;101398.63;4998159;28;20392;-81
2023/02/18 09:50:26;;;;;;;11.38;1.73;;;;;;;10.60;100.00;101382.53;4979990;28;20080;-76
2023/02/18 09:52:53;;;;;;;0.30;0.30;;;;;;;10.29;100.00;101369.63;4982088;28;20480;-77
2023/02/18 09:55:29;;;;;;;0.47;0.40;;;;;;;10.42;100.00;101395.19;4997637;28;20120;-76
2023/02/18 09:58:01;;;;;;;0.40;0.40;;;;;;;10.53;100.00;101398.47;4997764;28;20057;-77
2023/02/18 10:00:37;;;;;;;0.40;0.40;;;;;;;10.64;100.00;101404.56;4997814;28;20475;-76
2023/02/18 10:03:06;;;;;;;0.40;0.40;;;;;;;10.77;100.00;101407.69;4997634;28;20169;-77
2023/02/18 10:05:33;;;;;;;0.93;0.93;;;;;;;10.91;100.00;101417.81;4997257;28;20498;-78
2023/02/18 10:08:06;;;;;;;0.40;0.40;;;;;;;10.99;100.00;101420.53;4997069;28;20467;-79
2023/02/18 10:10:32;;;;;;;;;;;;;;;10.99;100.00;101431.28;4997303;28;20081;-76
2023/02/18 10:12:58;;;;;;;5.57;1.15;;;;;;;10.95;100.00;101423.69;5013505;28;20307;-76
2023/02/18 10:15:27;;;;;;;0.60;0.60;;;;;;;10.98;100.00;101424.25;5013247;28;20026;-75
2023/02/18 10:17:55;;;;;;;0.88;0.60;;;;;;;11.28;100.00;101431.91;5013444;28;20046;-77
2023/02/18 10:20:23;;;;;;;0.50;0.50;;;;;;;11.39;100.00;101429.75;4996908;28;20034;-77
2023/02/18 10:22:50;;;;;;;1.05;0.90;;;;;;;11.37;100.00;101436.28;5013340;28;20026;-77
2023/02/18 10:25:19;;;;;;;0.63;0.63;;;;;;;11.25;100.00;101438.47;4996670;28;20411;-77
2023/02/18 10:27:47;;;;;;;0.68;0.68;;;;;;;11.39;100.00;101436.97;4981175;28;20038;-77
2023/02/18 10:30:29;;;;;;;0.68;0.60;;;;;;;11.68;100.00;101427.63;5013121;28;20409;-78
2023/02/18 10:33:07;;;;;;;0.77;0.55;;;;;;;11.84;100.00;101441.09;4996532;28;20026;-78
2023/02/18 10:35:52;;;;;;;1.77;0.80;;;;;;;11.76;100.00;101435.69;4982068;28;20073;-77
2023/02/18 10:39:02;;;;;;;3.13;0.90;;;;;;;11.93;100.00;101433.88;4997001;28;20065;-78
2023/02/18 10:41:31;;;;;;;7.22;0.90;;;;;;;11.76;100.00;101439.22;4972812;28;20079;-79
2023/02/18 10:44:22;;;;;;;6.07;1.13;;;;;;;11.48;100.00;101403.66;4972793;28;20405;-77
2023/02/18 10:47:19;;;;;;;4.53;1.20;;;;;;;11.81;100.00;101442.28;4984467;28;20085;-77
2023/02/18 10:49:48;;;;;;;2.55;0.63;;;;;;;12.14;100.00;101433.38;5012726;28;20034;-78
2023/02/18 10:52:17;;;;;;;3.50;0.88;;;;;;;12.20;100.00;101403.88;5011931;28;20068;-77
2023/02/18 10:54:57;;;;;;;11.45;1.80;;;;;;;12.39;100.00;101436.91;4996518;28;20033;-77
2023/02/18 10:57:24;;;;;;;13.68;2.50;;;;;;;12.20;100.00;101414.69;5013102;28;20547;-77
2023/02/18 11:00:11;;;;;;;17.45;3.08;;;;;;;12.46;100.00;101443.25;4980377;28;20038;-77
2023/02/18 11:02:40;;;;;;;21.27;2.88;;;;;;;12.89;100.00;101441.16;5012848;28;20026;-78
2023/02/18 11:05:23;;;;;;;14.30;2.60;;;;;;;13.05;100.00;101451.03;4981180;28;20140;-80
2023/02/18 11:07:51;;;;;;;13.18;2.90;;;;;;;12.79;100.00;101449.44;4980392;28;20033;-80
2023/02/18 11:10:41;;;;;;;14.63;2.05;;;;;;;12.39;100.00;101442.28;5012430;28;20144;-80
2023/02/18 11:13:08;;;;;;;19.38;2.35;;;;;;;11.83;100.00;101442.94;4995875;28;20038;-81
2023/02/18 11:15:34;;;;;;;11.60;2.05;;;;;;;11.48;100.00;101441.38;5012560;28;20184;-82
2023/02/18 11:18:25;;;;;;;5.78;1.52;;;;;;;11.39;100.00;101459.34;5012469;28;20041;-81
2023/02/18 11:20:59;;;;;;;17.17;2.88;;;;;;;11.33;100.00;101457.34;5012690;28;20087;-80
2023/02/18 11:23:24;;;;;;;17.80;3.15;;;;;;;12.02;100.00;101465.22;4996365;28;20030;-79
2023/02/18 11:26:02;;;;;;;11.27;2.15;;;;;;;12.12;100.00;101457.81;4995830;28;20168;-79
2023/02/18 11:28:48;;;;;;;13.07;2.30;;;;;;;12.05;100.00;101454.09;4996366;28;20037;-80
2023/02/18 11:31:22;;;;;;;12.55;2.28;;;;;;;12.40;100.00;101470.94;4996301;28;20067;-80
2023/02/18 11:33:51;;;;;;;8.52;2.28;;;;;;;12.41;100.00;101470.78;5012152;28;20361;-81